sensor_id;sensor_type;location;lat;lon;timestamp;temperature;humidity
59282;DHT22;45054;52.062;10.010;2023-04-23T00:00:32;16.00;99.90
59282;DHT22;45054;52.062;10.010;2023-04-23T00:02:57;16.00;99.90
59282;DHT22;45054;52.062;10.010;2023-04-23T00:05:26;16.00;99.90
59282;DHT22;45054;52.062;10.010;2023-04-23T00:07:51;16.00;99.90
59282;DHT22;45054;52.062;10.010;2023-04-23T00:10:17;15.90;99.90
59282;DHT22;45054;52.062;10.010;2023-04-23T00:12:43;15.90;99.90
59282;DHT22;45054;52.062;10.010;2023-04-23T00:15:09;15.80;99.90
59282;DHT22;45054;52.062;10.010;2023-04-23T00:17:35;15.80;99.90
59282;DHT22;45054;52.062;10.010;2023-04-23T00:20:00;15.80;99.90
59282;DHT22;45054;52.062;10.010;2023-04-23T00:22:27;15.80;99.90
59282;DHT22;45054;52.062;10.010;2023-04-23T00:24:53;15.80;99.90
59282;DHT22;45054;52.062;10.010;2023-04-23T00:27:18;15.80;99.90
59282;DHT22;45054;52.062;10.010;2023-04-23T00:29:44;15.80;99.90
59282;DHT22;45054;52.062;10.010;2023-04-23T00:32:09;15.80;99.90
59282;DHT22;45054;52.062;10.010;2023-04-23T00:34:34;15.80;99.90
59282;DHT22;45054;52.062;10.010;2023-04-23T00:37:00;15.80;99.90
59282;DHT22;45054;52.062;10.010;2023-04-23T00:39:27;15.80;99.90
59282;DHT22;45054;52.062;10.010;2023-04-23T00:41:52;15.70;99.90
59282;DHT22;45054;52.062;10.010;2023-04-23T00:44:18;15.60;99.90
59282;DHT22;45054;52.062;10.010;2023-04-23T00:46:43;15.60;99.90
59282;DHT22;45054;52.062;10.010;2023-04-23T00:49:09;15.60;99.90
59282;DHT22;45054;52.062;10.010;2023-04-23T00:51:35;15.50;99.90
59282;DHT22;45054;52.062;10.010;2023-04-23T00:54:00;15.50;99.90
59282;DHT22;45054;52.062;10.010;2023-04-23T00:56:27;15.50;99.90
59282;DHT22;45054;52.062;10.010;2023-04-23T00:58:53;15.40;99.90
59282;DHT22;45054;52.062;10.010;2023-04-23T01:01:19;15.40;99.90
59282;DHT22;45054;52.062;10.010;2023-04-23T01:03:45;15.30;99.90
59282;DHT22;45054;52.062;10.010;2023-04-23T01:06:10;15.30;99.90
59282;DHT22;45054;52.062;10.010;2023-04-23T01:08:36;15.20;99.90
59282;DHT22;45054;52.062;10.010;2023-04-23T01:11:04;15.30;99.90
59282;DHT22;45054;52.062;10.010;2023-04-23T01:13:31;15.20;99.90
59282;DHT22;45054;52.062;10.010;2023-04-23T01:15:56;15.20;99.90
59282;DHT22;45054;52.062;10.010;2023-04-23T01:18:22;15.10;99.90
59282;DHT22;45054;52.062;10.010;2023-04-23T01:20:47;15.10;99.90
59282;DHT22;45054;52.062;10.010;2023-04-23T01:23:14;15.10;99.90
59282;DHT22;45054;52.062;10.010;2023-04-23T01:25:39;15.10;99.90
59282;DHT22;45054;52.062;10.010;2023-04-23T01:28:05;15.00;99.90
59282;DHT22;45054;52.062;10.010;2023-04-23T01:30:31;15.10;99.90
59282;DHT22;45054;52.062;10.010;2023-04-23T01:32:56;15.10;99.90
59282;DHT22;45054;52.062;10.010;2023-04-23T01:35:21;15.00;99.90
59282;DHT22;45054;52.062;10.010;2023-04-23T01:37:47;15.00;99.90
59282;DHT22;45054;52.062;10.010;2023-04-23T01:40:15;15.00;99.90
59282;DHT22;45054;52.062;10.010;2023-04-23T01:42:40;14.90;99.90
59282;DHT22;45054;52.062;10.010;2023-04-23T01:45:06;14.90;99.90
59282;DHT22;45054;52.062;10.010;2023-04-23T01:47:32;14.80;99.90
59282;DHT22;45054;52.062;10.010;2023-04-23T01:49:58;14.70;99.90
59282;DHT22;45054;52.062;10.010;2023-04-23T01:52:23;14.70;99.90
59282;DHT22;45054;52.062;10.010;2023-04-23T01:54:48;14.70;99.90
59282;DHT22;45054;52.062;10.010;2023-04-23T01:57:15;14.60;99.90
59282;DHT22;45054;52.062;10.010;2023-04-23T01:59:41;14.40;99.90
59282;DHT22;45054;52.062;10.010;2023-04-23T02:02:06;14.40;99.90
59282;DHT22;45054;52.062;10.010;2023-04-23T02:04:32;14.40;99.90
59282;DHT22;45054;52.062;10.010;2023-04-23T02:06:58;14.50;99.90
59282;DHT22;45054;52.062;10.010;2023-04-23T02:09:23;14.50;99.90
59282;DHT22;45054;52.062;10.010;2023-04-23T02:11:49;14.50;99.90
59282;DHT22;45054;52.062;10.010;2023-04-23T02:14:15;14.40;99.90
59282;DHT22;45054;52.062;10.010;2023-04-23T02:16:41;14.40;99.90
59282;DHT22;45054;52.062;10.010;2023-04-23T02:19:06;14.30;99.90
59282;DHT22;45054;52.062;10.010;2023-04-23T02:21:32;14.30;99.90
59282;DHT22;45054;52.062;10.010;2023-04-23T02:23:57;14.40;99.90
59282;DHT22;45054;52.062;10.010;2023-04-23T02:26:23;14.40;99.90
59282;DHT22;45054;52.062;10.010;2023-04-23T02:28:48;14.40;99.90
59282;DHT22;45054;52.062;10.010;2023-04-23T02:31:15;14.20;99.90
59282;DHT22;45054;52.062;10.010;2023-04-23T02:33:40;14.20;99.90
59282;DHT22;45054;52.062;10.010;2023-04-23T02:36:06;14.10;99.90
59282;DHT22;45054;52.062;10.010;2023-04-23T02:38:31;14.20;99.90
59282;DHT22;45054;52.062;10.010;2023-04-23T02:40:57;14.20;99.90
59282;DHT22;45054;52.062;10.010;2023-04-23T02:43:22;14.10;99.90
59282;DHT22;45054;52.062;10.010;2023-04-23T02:45:48;14.20;99.90
59282;DHT22;45054;52.062;10.010;2023-04-23T02:48:15;14.10;99.90
59282;DHT22;45054;52.062;10.010;2023-04-23T02:50:40;14.10;99.90
59282;DHT22;45054;52.062;10.010;2023-04-23T02:53:06;14.00;99.90
59282;DHT22;45054;52.062;10.010;2023-04-23T02:55:31;13.80;99.90
59282;DHT22;45054;52.062;10.010;2023-04-23T02:57:57;13.70;99.90
59282;DHT22;45054;52.062;10.010;2023-04-23T03:00:22;13.70;99.90
59282;DHT22;45054;52.062;10.010;2023-04-23T03:02:48;13.70;99.90
59282;DHT22;45054;52.062;10.010;2023-04-23T03:05:15;13.60;99.90
59282;DHT22;45054;52.062;10.010;2023-04-23T03:07:40;13.60;99.90
59282;DHT22;45054;52.062;10.010;2023-04-23T03:10:06;13.60;99.90
59282;DHT22;45054;52.062;10.010;2023-04-23T03:12:31;13.70;99.90
59282;DHT22;45054;52.062;10.010;2023-04-23T03:14:57;13.70;99.90
59282;DHT22;45054;52.062;10.010;2023-04-23T03:17:22;13.80;99.90
59282;DHT22;45054;52.062;10.010;2023-04-23T03:19:48;13.80;99.90
59282;DHT22;45054;52.062;10.010;2023-04-23T03:22:14;13.80;99.90
59282;DHT22;45054;52.062;10.010;2023-04-23T03:24:40;13.60;99.90
59282;DHT22;45054;52.062;10.010;2023-04-23T03:27:05;13.60;99.90
59282;DHT22;45054;52.062;10.010;2023-04-23T03:29:31;13.50;99.90
59282;DHT22;45054;52.062;10.010;2023-04-23T03:31:56;13.50;99.90
59282;DHT22;45054;52.062;10.010;2023-04-23T03:34:21;13.40;99.90
59282;DHT22;45054;52.062;10.010;2023-04-23T03:36:47;13.40;99.90
59282;DHT22;45054;52.062;10.010;2023-04-23T03:39:14;13.30;99.90
59282;DHT22;45054;52.062;10.010;2023-04-23T03:41:39;13.30;99.90
59282;DHT22;45054;52.062;10.010;2023-04-23T03:44:05;13.30;99.90
59282;DHT22;45054;52.062;10.010;2023-04-23T03:46:30;13.20;99.90
59282;DHT22;45054;52.062;10.010;2023-04-23T03:48:55;13.20;99.90
59282;DHT22;45054;52.062;10.010;2023-04-23T03:51:21;13.20;99.90
59282;DHT22;45054;52.062;10.010;2023-04-23T03:53:47;13.20;99.90
59282;DHT22;45054;52.062;10.010;2023-04-23T03:56:14;13.10;99.90
59282;DHT22;45054;52.062;10.010;2023-04-23T03:58:39;13.10;99.90
59282;DHT22;45054;52.062;10.010;2023-04-23T04:01:05;13.10;99.90
59282;DHT22;45054;52.062;10.010;2023-04-23T04:03:30;13.10;99.90
59282;DHT22;45054;52.062;10.010;2023-04-23T04:05:56;13.10;99.90
59282;DHT22;45054;52.062;10.010;2023-04-23T04:08:21;12.90;99.90
59282;DHT22;45054;52.062;10.010;2023-04-23T04:10:47;12.90;99.90
59282;DHT22;45054;52.062;10.010;2023-04-23T04:13:13;12.80;99.90
59282;DHT22;45054;52.062;10.010;2023-04-23T04:15:39;12.70;99.90
59282;DHT22;45054;52.062;10.010;2023-04-23T04:18:04;12.60;99.90
59282;DHT22;45054;52.062;10.010;2023-04-23T04:20:30;12.60;99.90
59282;DHT22;45054;52.062;10.010;2023-04-23T04:22:55;12.60;99.90
59282;DHT22;45054;52.062;10.010;2023-04-23T04:25:20;12.60;99.90
59282;DHT22;45054;52.062;10.010;2023-04-23T04:27:46;12.60;99.90
59282;DHT22;45054;52.062;10.010;2023-04-23T04:30:13;12.60;99.90
59282;DHT22;45054;52.062;10.010;2023-04-23T04:32:38;12.50;99.90
59282;DHT22;45054;52.062;10.010;2023-04-23T04:35:04;12.40;99.90
59282;DHT22;45054;52.062;10.010;2023-04-23T04:37:30;12.40;99.90
59282;DHT22;45054;52.062;10.010;2023-04-23T04:39:55;12.40;99.90
59282;DHT22;45054;52.062;10.010;2023-04-23T04:42:20;12.30;99.90
59282;DHT22;45054;52.062;10.010;2023-04-23T04:44:46;12.20;99.90
59282;DHT22;45054;52.062;10.010;2023-04-23T04:47:13;12.10;99.90
59282;DHT22;45054;52.062;10.010;2023-04-23T04:49:38;12.10;99.90
59282;DHT22;45054;52.062;10.010;2023-04-23T04:52:03;12.20;99.90
59282;DHT22;45054;52.062;10.010;2023-04-23T04:54:29;12.10;99.90
59282;DHT22;45054;52.062;10.010;2023-04-23T04:56:55;12.20;99.90
59282;DHT22;45054;52.062;10.010;2023-04-23T04:59:20;12.20;99.90
59282;DHT22;45054;52.062;10.010;2023-04-23T05:01:46;12.10;99.90
59282;DHT22;45054;52.062;10.010;2023-04-23T05:04:13;12.20;99.90
59282;DHT22;45054;52.062;10.010;2023-04-23T05:06:38;12.30;99.90
59282;DHT22;45054;52.062;10.010;2023-04-23T05:09:03;12.30;99.90
59282;DHT22;45054;52.062;10.010;2023-04-23T05:11:29;12.30;99.90
59282;DHT22;45054;52.062;10.010;2023-04-23T05:13:55;12.20;99.90
59282;DHT22;45054;52.062;10.010;2023-04-23T05:16:20;12.20;99.90
59282;DHT22;45054;52.062;10.010;2023-04-23T05:18:46;12.10;99.90
59282;DHT22;45054;52.062;10.010;2023-04-23T05:21:13;12.20;99.90
59282;DHT22;45054;52.062;10.010;2023-04-23T05:23:39;12.20;99.90
59282;DHT22;45054;52.062;10.010;2023-04-23T05:26:04;12.20;99.90
59282;DHT22;45054;52.062;10.010;2023-04-23T05:28:30;12.20;99.90
59282;DHT22;45054;52.062;10.010;2023-04-23T05:30:56;12.20;99.90
59282;DHT22;45054;52.062;10.010;2023-04-23T05:33:21;12.30;99.90
59282;DHT22;45054;52.062;10.010;2023-04-23T05:35:47;12.20;99.90
59282;DHT22;45054;52.062;10.010;2023-04-23T05:38:14;12.20;99.90
59282;DHT22;45054;52.062;10.010;2023-04-23T05:40:39;12.10;99.90
59282;DHT22;45054;52.062;10.010;2023-04-23T05:43:04;12.10;99.90
59282;DHT22;45054;52.062;10.010;2023-04-23T05:45:30;12.20;99.90
59282;DHT22;45054;52.062;10.010;2023-04-23T05:47:55;12.20;99.90
59282;DHT22;45054;52.062;10.010;2023-04-23T05:50:21;12.20;99.90
59282;DHT22;45054;52.062;10.010;2023-04-23T05:52:47;12.20;99.90
59282;DHT22;45054;52.062;10.010;2023-04-23T05:55:13;12.30;99.90
59282;DHT22;45054;52.062;10.010;2023-04-23T05:57:39;12.40;99.90
59282;DHT22;45054;52.062;10.010;2023-04-23T06:00:05;12.40;99.90
59282;DHT22;45054;52.062;10.010;2023-04-23T06:02:30;12.40;99.90
59282;DHT22;45054;52.062;10.010;2023-04-23T06:04:56;12.50;99.90
59282;DHT22;45054;52.062;10.010;2023-04-23T06:07:21;12.50;99.90
59282;DHT22;45054;52.062;10.010;2023-04-23T06:09:47;12.40;99.90
59282;DHT22;45054;52.062;10.010;2023-04-23T06:12:14;12.50;99.90
59282;DHT22;45054;52.062;10.010;2023-04-23T06:14:39;12.40;99.90
59282;DHT22;45054;52.062;10.010;2023-04-23T06:17:04;12.40;99.90
59282;DHT22;45054;52.062;10.010;2023-04-23T06:19:30;12.40;99.90
59282;DHT22;45054;52.062;10.010;2023-04-23T06:21:56;12.40;99.90
59282;DHT22;45054;52.062;10.010;2023-04-23T06:24:21;12.40;99.90
59282;DHT22;45054;52.062;10.010;2023-04-23T06:26:47;12.40;99.90
59282;DHT22;45054;52.062;10.010;2023-04-23T06:29:13;12.40;99.90
59282;DHT22;45054;52.062;10.010;2023-04-23T06:31:39;12.40;99.90
59282;DHT22;45054;52.062;10.010;2023-04-23T06:34:04;12.40;99.90
59282;DHT22;45054;52.062;10.010;2023-04-23T06:36:30;12.40;99.90
59282;DHT22;45054;52.062;10.010;2023-04-23T06:38:55;12.50;99.90
59282;DHT22;45054;52.062;10.010;2023-04-23T06:41:21;12.50;99.90
59282;DHT22;45054;52.062;10.010;2023-04-23T06:43:46;12.50;99.90
59282;DHT22;45054;52.062;10.010;2023-04-23T06:46:13;12.50;99.90
59282;DHT22;45054;52.062;10.010;2023-04-23T06:48:39;12.40;99.90
59282;DHT22;45054;52.062;10.010;2023-04-23T06:51:04;12.40;99.90
59282;DHT22;45054;52.062;10.010;2023-04-23T06:53:29;12.40;99.90
59282;DHT22;45054;52.062;10.010;2023-04-23T06:55:55;12.50;99.90
59282;DHT22;45054;52.062;10.010;2023-04-23T06:58:20;12.60;99.90
59282;DHT22;45054;52.062;10.010;2023-04-23T07:00:46;12.70;99.90
59282;DHT22;45054;52.062;10.010;2023-04-23T07:03:13;12.70;99.90
59282;DHT22;45054;52.062;10.010;2023-04-23T07:05:38;12.80;99.90
59282;DHT22;45054;52.062;10.010;2023-04-23T07:08:03;12.80;99.90
59282;DHT22;45054;52.062;10.010;2023-04-23T07:10:29;12.80;99.90
59282;DHT22;45054;52.062;10.010;2023-04-23T07:12:54;12.80;99.90
59282;DHT22;45054;52.062;10.010;2023-04-23T07:15:20;12.80;99.90
59282;DHT22;45054;52.062;10.010;2023-04-23T07:17:45;12.80;99.90
59282;DHT22;45054;52.062;10.010;2023-04-23T07:20:12;12.80;99.90
59282;DHT22;45054;52.062;10.010;2023-04-23T07:22:37;12.80;99.90
59282;DHT22;45054;52.062;10.010;2023-04-23T07:25:03;12.80;99.90
59282;DHT22;45054;52.062;10.010;2023-04-23T07:27:28;12.80;99.90
59282;DHT22;45054;52.062;10.010;2023-04-23T07:29:54;12.80;99.90
59282;DHT22;45054;52.062;10.010;2023-04-23T07:32:19;12.90;99.90
59282;DHT22;45054;52.062;10.010;2023-04-23T07:34:45;12.90;99.90
59282;DHT22;45054;52.062;10.010;2023-04-23T07:37:12;13.00;99.90
59282;DHT22;45054;52.062;10.010;2023-04-23T07:39:37;13.20;99.90
59282;DHT22;45054;52.062;10.010;2023-04-23T07:42:02;13.20;99.90
59282;DHT22;45054;52.062;10.010;2023-04-23T07:44:28;13.10;99.90
59282;DHT22;45054;52.062;10.010;2023-04-23T07:46:53;13.00;99.90
59282;DHT22;45054;52.062;10.010;2023-04-23T07:49:19;12.90;99.90
59282;DHT22;45054;52.062;10.010;2023-04-23T07:51:44;12.90;99.90
59282;DHT22;45054;52.062;10.010;2023-04-23T07:54:11;12.80;99.90
59282;DHT22;45054;52.062;10.010;2023-04-23T07:56:36;12.70;99.90
59282;DHT22;45054;52.062;10.010;2023-04-23T07:59:02;12.70;99.90
59282;DHT22;45054;52.062;10.010;2023-04-23T08:01:27;12.90;99.90
59282;DHT22;45054;52.062;10.010;2023-04-23T08:03:53;13.00;99.90
59282;DHT22;45054;52.062;10.010;2023-04-23T08:06:19;13.00;99.90
59282;DHT22;45054;52.062;10.010;2023-04-23T08:08:44;13.10;99.90
59282;DHT22;45054;52.062;10.010;2023-04-23T08:11:11;13.10;99.90
59282;DHT22;45054;52.062;10.010;2023-04-23T08:13:36;13.20;99.90
59282;DHT22;45054;52.062;10.010;2023-04-23T08:16:02;13.20;99.90
59282;DHT22;45054;52.062;10.010;2023-04-23T08:18:27;13.20;99.90
59282;DHT22;45054;52.062;10.010;2023-04-23T08:20:53;13.30;99.90
59282;DHT22;45054;52.062;10.010;2023-04-23T08:23:18;13.30;99.90
59282;DHT22;45054;52.062;10.010;2023-04-23T08:25:44;13.30;99.90
59282;DHT22;45054;52.062;10.010;2023-04-23T08:28:10;13.30;99.90
59282;DHT22;45054;52.062;10.010;2023-04-23T08:30:36;13.40;99.90
59282;DHT22;45054;52.062;10.010;2023-04-23T08:33:01;13.50;99.90
59282;DHT22;45054;52.062;10.010;2023-04-23T08:35:27;13.50;99.90
59282;DHT22;45054;52.062;10.010;2023-04-23T08:37:52;13.70;99.90
59282;DHT22;45054;52.062;10.010;2023-04-23T08:40:18;13.70;99.90
59282;DHT22;45054;52.062;10.010;2023-04-23T08:42:44;13.80;99.90
59282;DHT22;45054;52.062;10.010;2023-04-23T08:45:14;14.00;99.90
59282;DHT22;45054;52.062;10.010;2023-04-23T08:47:40;14.00;99.90
59282;DHT22;45054;52.062;10.010;2023-04-23T08:50:06;14.10;99.90
59282;DHT22;45054;52.062;10.010;2023-04-23T08:52:32;14.00;99.90
59282;DHT22;45054;52.062;10.010;2023-04-23T08:54:58;13.90;99.90
59282;DHT22;45054;52.062;10.010;2023-04-23T08:57:24;14.00;99.90
59282;DHT22;45054;52.062;10.010;2023-04-23T08:59:50;14.10;99.90
59282;DHT22;45054;52.062;10.010;2023-04-23T09:02:17;14.20;99.90
59282;DHT22;45054;52.062;10.010;2023-04-23T09:04:44;14.30;99.90
59282;DHT22;45054;52.062;10.010;2023-04-23T09:07:09;14.30;99.90
59282;DHT22;45054;52.062;10.010;2023-04-23T09:09:35;14.40;99.90
59282;DHT22;45054;52.062;10.010;2023-04-23T09:12:01;14.50;99.90
59282;DHT22;45054;52.062;10.010;2023-04-23T09:14:26;14.60;99.90
59282;DHT22;45054;52.062;10.010;2023-04-23T09:16:53;14.70;99.90
59282;DHT22;45054;52.062;10.010;2023-04-23T09:19:20;14.80;99.90
59282;DHT22;45054;52.062;10.010;2023-04-23T09:21:45;14.90;99.90
59282;DHT22;45054;52.062;10.010;2023-04-23T09:24:11;14.90;99.90
59282;DHT22;45054;52.062;10.010;2023-04-23T09:26:40;15.00;99.90
59282;DHT22;45054;52.062;10.010;2023-04-23T09:29:11;15.00;99.90
59282;DHT22;45054;52.062;10.010;2023-04-23T09:31:37;15.00;99.90
59282;DHT22;45054;52.062;10.010;2023-04-23T09:34:02;14.90;99.90
59282;DHT22;45054;52.062;10.010;2023-04-23T09:36:30;15.00;99.90
59282;DHT22;45054;52.062;10.010;2023-04-23T09:38:55;15.10;99.90
59282;DHT22;45054;52.062;10.010;2023-04-23T09:41:21;15.10;99.90
59282;DHT22;45054;52.062;10.010;2023-04-23T09:43:47;15.20;99.90
59282;DHT22;45054;52.062;10.010;2023-04-23T09:46:12;15.20;99.90
59282;DHT22;45054;52.062;10.010;2023-04-23T09:48:41;15.20;99.90
59282;DHT22;45054;52.062;10.010;2023-04-23T09:51:07;15.20;99.90
59282;DHT22;45054;52.062;10.010;2023-04-23T09:53:39;15.20;99.90
59282;DHT22;45054;52.062;10.010;2023-04-23T09:56:05;15.30;99.90
59282;DHT22;45054;52.062;10.010;2023-04-23T09:58:31;15.50;99.90
59282;DHT22;45054;52.062;10.010;2023-04-23T10:00:57;15.60;99.90
59282;DHT22;45054;52.062;10.010;2023-04-23T10:03:30;15.80;99.90
59282;DHT22;45054;52.062;10.010;2023-04-23T10:05:55;16.00;99.90
59282;DHT22;45054;52.062;10.010;2023-04-23T10:08:22;16.10;99.90
59282;DHT22;45054;52.062;10.010;2023-04-23T10:10:49;16.20;99.90
59282;DHT22;45054;52.062;10.010;2023-04-23T10:13:15;16.20;99.90
59282;DHT22;45054;52.062;10.010;2023-04-23T10:15:40;16.40;99.90
59282;DHT22;45054;52.062;10.010;2023-04-23T10:18:06;16.60;99.90
59282;DHT22;45054;52.062;10.010;2023-04-23T10:20:32;17.00;99.90
59282;DHT22;45054;52.062;10.010;2023-04-23T10:22:58;17.30;99.90
59282;DHT22;45054;52.062;10.010;2023-04-23T10:25:24;17.40;99.90
59282;DHT22;45054;52.062;10.010;2023-04-23T10:27:51;17.60;99.90
59282;DHT22;45054;52.062;10.010;2023-04-23T10:30:17;17.30;99.90
59282;DHT22;45054;52.062;10.010;2023-04-23T10:32:42;17.10;99.90
59282;DHT22;45054;52.062;10.010;2023-04-23T10:35:09;17.10;99.90
59282;DHT22;45054;52.062;10.010;2023-04-23T10:37:34;16.90;99.90
59282;DHT22;45054;52.062;10.010;2023-04-23T10:40:03;16.90;99.90
59282;DHT22;45054;52.062;10.010;2023-04-23T10:42:29;16.90;99.90
59282;DHT22;45054;52.062;10.010;2023-04-23T10:44:57;16.80;99.90
59282;DHT22;45054;52.062;10.010;2023-04-23T10:47:22;16.80;99.90
59282;DHT22;45054;52.062;10.010;2023-04-23T10:49:48;16.90;99.90
59282;DHT22;45054;52.062;10.010;2023-04-23T10:52:14;17.00;99.90
59282;DHT22;45054;52.062;10.010;2023-04-23T10:54:40;17.00;99.90
59282;DHT22;45054;52.062;10.010;2023-04-23T10:57:05;16.90;99.90
59282;DHT22;45054;52.062;10.010;2023-04-23T10:59:31;16.90;99.90
59282;DHT22;45054;52.062;10.010;2023-04-23T11:02:04;16.80;99.90
59282;DHT22;45054;52.062;10.010;2023-04-23T11:04:30;16.70;99.90
59282;DHT22;45054;52.062;10.010;2023-04-23T11:06:56;16.70;99.90
59282;DHT22;45054;52.062;10.010;2023-04-23T11:09:29;16.60;99.90
59282;DHT22;45054;52.062;10.010;2023-04-23T11:11:54;16.70;99.90
59282;DHT22;45054;52.062;10.010;2023-04-23T11:14:20;16.70;99.90
59282;DHT22;45054;52.062;10.010;2023-04-23T11:16:58;16.70;99.90
59282;DHT22;45054;52.062;10.010;2023-04-23T11:19:24;16.80;99.90
59282;DHT22;45054;52.062;10.010;2023-04-23T11:21:56;16.80;99.90
59282;DHT22;45054;52.062;10.010;2023-04-23T11:24:21;16.90;99.90
59282;DHT22;45054;52.062;10.010;2023-04-23T11:26:47;17.10;99.90
59282;DHT22;45054;52.062;10.010;2023-04-23T11:29:14;17.50;99.90
59282;DHT22;45054;52.062;10.010;2023-04-23T11:31:39;17.70;99.90
59282;DHT22;45054;52.062;10.010;2023-04-23T11:34:08;17.80;99.90
59282;DHT22;45054;52.062;10.010;2023-04-23T11:36:34;17.50;99.90
59282;DHT22;45054;52.062;10.010;2023-04-23T11:38:59;17.50;99.90
59282;DHT22;45054;52.062;10.010;2023-04-23T11:41:25;17.60;99.90
59282;DHT22;45054;52.062;10.010;2023-04-23T11:43:50;17.60;99.90
59282;DHT22;45054;52.062;10.010;2023-04-23T11:46:16;17.60;99.90
59282;DHT22;45054;52.062;10.010;2023-04-23T11:48:41;17.60;99.90
59282;DHT22;45054;52.062;10.010;2023-04-23T11:51:08;17.50;99.90
59282;DHT22;45054;52.062;10.010;2023-04-23T11:53:33;17.40;99.90
59282;DHT22;45054;52.062;10.010;2023-04-23T11:55:59;17.40;99.90
59282;DHT22;45054;52.062;10.010;2023-04-23T11:58:24;17.30;99.90
59282;DHT22;45054;52.062;10.010;2023-04-23T12:00:55;17.20;99.90
59282;DHT22;45054;52.062;10.010;2023-04-23T12:03:23;17.00;99.90
59282;DHT22;45054;52.062;10.010;2023-04-23T12:05:49;16.90;99.90
59282;DHT22;45054;52.062;10.010;2023-04-23T12:08:17;16.80;99.90
59282;DHT22;45054;52.062;10.010;2023-04-23T12:13:12;15.90;99.90
59282;DHT22;45054;52.062;10.010;2023-04-23T12:15:42;15.20;99.90
59282;DHT22;45054;52.062;10.010;2023-04-23T12:18:08;14.30;99.90
59282;DHT22;45054;52.062;10.010;2023-04-23T12:20:33;13.40;99.90
59282;DHT22;45054;52.062;10.010;2023-04-23T12:23:02;12.80;99.90
59282;DHT22;45054;52.062;10.010;2023-04-23T12:25:29;12.60;99.90
59282;DHT22;45054;52.062;10.010;2023-04-23T12:27:57;12.50;99.90
59282;DHT22;45054;52.062;10.010;2023-04-23T12:30:23;12.60;99.90
59282;DHT22;45054;52.062;10.010;2023-04-23T12:32:54;12.70;99.90
59282;DHT22;45054;52.062;10.010;2023-04-23T12:35:31;12.90;99.90
59282;DHT22;45054;52.062;10.010;2023-04-23T12:38:02;13.10;99.90
59282;DHT22;45054;52.062;10.010;2023-04-23T12:40:29;13.30;99.90
59282;DHT22;45054;52.062;10.010;2023-04-23T12:42:55;13.60;99.90
59282;DHT22;45054;52.062;10.010;2023-04-23T12:45:20;13.90;99.90
59282;DHT22;45054;52.062;10.010;2023-04-23T12:47:46;14.00;99.90
59282;DHT22;45054;52.062;10.010;2023-04-23T12:50:11;14.40;99.90
59282;DHT22;45054;52.062;10.010;2023-04-23T12:52:37;14.80;99.90
59282;DHT22;45054;52.062;10.010;2023-04-23T12:55:02;15.30;99.90
59282;DHT22;45054;52.062;10.010;2023-04-23T12:57:29;15.30;99.90
59282;DHT22;45054;52.062;10.010;2023-04-23T12:59:54;15.40;99.90
59282;DHT22;45054;52.062;10.010;2023-04-23T13:02:20;15.50;99.90
59282;DHT22;45054;52.062;10.010;2023-04-23T13:04:46;15.70;99.90
59282;DHT22;45054;52.062;10.010;2023-04-23T13:07:11;16.00;99.90
59282;DHT22;45054;52.062;10.010;2023-04-23T13:09:36;16.10;99.90
59282;DHT22;45054;52.062;10.010;2023-04-23T13:12:02;16.30;99.90
59282;DHT22;45054;52.062;10.010;2023-04-23T13:14:29;16.60;99.90
59282;DHT22;45054;52.062;10.010;2023-04-23T13:16:54;16.80;99.90
59282;DHT22;45054;52.062;10.010;2023-04-23T13:19:20;17.10;99.90
59282;DHT22;45054;52.062;10.010;2023-04-23T13:21:45;17.20;99.90
59282;DHT22;45054;52.062;10.010;2023-04-23T13:24:10;17.30;99.90
59282;DHT22;45054;52.062;10.010;2023-04-23T13:26:36;17.30;99.90
59282;DHT22;45054;52.062;10.010;2023-04-23T13:29:02;17.30;99.90
59282;DHT22;45054;52.062;10.010;2023-04-23T13:31:29;17.20;99.90
59282;DHT22;45054;52.062;10.010;2023-04-23T13:33:54;17.30;99.90
59282;DHT22;45054;52.062;10.010;2023-04-23T13:36:20;17.30;99.90
59282;DHT22;45054;52.062;10.010;2023-04-23T13:38:46;17.30;99.90
59282;DHT22;45054;52.062;10.010;2023-04-23T13:41:11;17.30;99.90
59282;DHT22;45054;52.062;10.010;2023-04-23T13:43:37;17.30;99.90
59282;DHT22;45054;52.062;10.010;2023-04-23T13:46:02;17.30;99.90
59282;DHT22;45054;52.062;10.010;2023-04-23T13:48:29;17.20;99.90
59282;DHT22;45054;52.062;10.010;2023-04-23T13:50:55;17.10;99.90
59282;DHT22;45054;52.062;10.010;2023-04-23T13:53:20;16.90;99.90
59282;DHT22;45054;52.062;10.010;2023-04-23T13:55:46;16.70;99.90
59282;DHT22;45054;52.062;10.010;2023-04-23T13:58:11;16.40;99.90
59282;DHT22;45054;52.062;10.010;2023-04-23T14:00:37;16.30;99.90
59282;DHT22;45054;52.062;10.010;2023-04-23T14:03:02;16.30;99.90
59282;DHT22;45054;52.062;10.010;2023-04-23T14:05:30;16.40;99.90
59282;DHT22;45054;52.062;10.010;2023-04-23T14:07:55;16.40;99.90
59282;DHT22;45054;52.062;10.010;2023-04-23T14:10:22;16.30;99.90
59282;DHT22;45054;52.062;10.010;2023-04-23T14:12:47;16.30;99.90
59282;DHT22;45054;52.062;10.010;2023-04-23T14:15:13;16.30;99.90
59282;DHT22;45054;52.062;10.010;2023-04-23T14:17:38;16.30;99.90
59282;DHT22;45054;52.062;10.010;2023-04-23T14:25:29;16.50;99.90
59282;DHT22;45054;52.062;10.010;2023-04-23T14:27:55;16.60;99.90
59282;DHT22;45054;52.062;10.010;2023-04-23T14:30:21;16.70;99.90
59282;DHT22;45054;52.062;10.010;2023-04-23T14:32:46;16.80;99.90
59282;DHT22;45054;52.062;10.010;2023-04-23T14:35:12;16.90;99.90
59282;DHT22;45054;52.062;10.010;2023-04-23T14:37:37;17.00;99.90
59282;DHT22;45054;52.062;10.010;2023-04-23T14:40:03;17.10;99.90
59282;DHT22;45054;52.062;10.010;2023-04-23T14:42:30;17.10;99.90
59282;DHT22;45054;52.062;10.010;2023-04-23T14:44:57;17.10;99.90
59282;DHT22;45054;52.062;10.010;2023-04-23T14:47:23;17.10;99.90
59282;DHT22;45054;52.062;10.010;2023-04-23T14:49:48;17.20;99.90
59282;DHT22;45054;52.062;10.010;2023-04-23T14:52:13;17.30;99.90
59282;DHT22;45054;52.062;10.010;2023-04-23T14:54:39;17.20;99.90
59282;DHT22;45054;52.062;10.010;2023-04-23T14:57:04;17.00;99.90
59282;DHT22;45054;52.062;10.010;2023-04-23T14:59:34;17.00;99.90
59282;DHT22;45054;52.062;10.010;2023-04-23T15:01:59;17.00;99.90
59282;DHT22;45054;52.062;10.010;2023-04-23T15:04:25;17.00;99.90
59282;DHT22;45054;52.062;10.010;2023-04-23T15:06:51;17.30;99.90
59282;DHT22;45054;52.062;10.010;2023-04-23T15:09:16;17.50;99.90
59282;DHT22;45054;52.062;10.010;2023-04-23T15:11:41;17.90;99.90
59282;DHT22;45054;52.062;10.010;2023-04-23T15:14:07;18.00;99.90